KEDE

Northeastern Regional Airport

Edenton, North Carolina, USA
METAR KEDE 201955Z AUTO 20003KT 10SM CLR 31/24 A3001 RMK AO2 T03070238
Observed Flight Rules
Aug-20 @ 19:55 UTC (34 minutes ago) Visual Flight Rules
Wind Visibility Clouds
200° at 3 knots 10 miles
  • Clear skies
Temperatures Readings
Current 31°C / 88°F
Dewpoint 24°C / 75°F
Humidity 66%
Altimeter 30.01" Hg
Pressure 1016 hPa
Elevation 6
METAR KEDE 201955Z AUTO 20003KT 10SM CLR 31/24 A3001 RMK AO2 T03070238
Observed Flight Rules
Aug-20 @ 19:55 UTC
(34 minutes ago)
VFR
Wind Visibility
200° at 3 knots 10 miles
Clouds
  • Clear skies
Temperature Dewpoint
31°C / 88°F 24°C / 75°F
Humidity Altimeter Pressure
66% 30.01" Hg 1016 hPa